sensor_id;sensor_type;location;lat;lon;timestamp;temperature;humidity
15413;DHT22;7805;49.554;7.632;2022-09-29T00:01:55;9.20;99.90
15413;DHT22;7805;49.554;7.632;2022-09-29T00:04:21;9.20;99.90
15413;DHT22;7805;49.554;7.632;2022-09-29T00:06:46;9.20;99.90
15413;DHT22;7805;49.554;7.632;2022-09-29T00:09:12;9.20;99.90
15413;DHT22;7805;49.554;7.632;2022-09-29T00:11:37;9.10;99.90
15413;DHT22;7805;49.554;7.632;2022-09-29T00:14:03;9.10;99.90
15413;DHT22;7805;49.554;7.632;2022-09-29T00:16:29;9.00;99.90
15413;DHT22;7805;49.554;7.632;2022-09-29T00:18:55;8.90;99.90
15413;DHT22;7805;49.554;7.632;2022-09-29T00:21:21;8.80;99.90
15413;DHT22;7805;49.554;7.632;2022-09-29T00:23:48;8.80;99.90
15413;DHT22;7805;49.554;7.632;2022-09-29T00:26:21;8.80;99.90
15413;DHT22;7805;49.554;7.632;2022-09-29T00:28:50;8.90;99.90
15413;DHT22;7805;49.554;7.632;2022-09-29T00:31:21;8.90;99.90
15413;DHT22;7805;49.554;7.632;2022-09-29T00:33:47;8.90;99.90
15413;DHT22;7805;49.554;7.632;2022-09-29T00:36:16;8.80;99.90
15413;DHT22;7805;49.554;7.632;2022-09-29T00:38:43;8.70;99.90
15413;DHT22;7805;49.554;7.632;2022-09-29T00:41:20;8.60;99.90
15413;DHT22;7805;49.554;7.632;2022-09-29T00:43:52;8.60;99.90
15413;DHT22;7805;49.554;7.632;2022-09-29T00:47:09;8.60;99.90
15413;DHT22;7805;49.554;7.632;2022-09-29T00:51:52;8.60;99.90
15413;DHT22;7805;49.554;7.632;2022-09-29T00:54:19;8.40;99.90
15413;DHT22;7805;49.554;7.632;2022-09-29T00:56:46;8.40;99.90
15413;DHT22;7805;49.554;7.632;2022-09-29T00:59:20;8.20;99.90
15413;DHT22;7805;49.554;7.632;2022-09-29T01:01:48;6.70;99.90
15413;DHT22;7805;49.554;7.632;2022-09-29T01:04:16;8.20;99.90
15413;DHT22;7805;49.554;7.632;2022-09-29T01:06:54;8.20;99.90
15413;DHT22;7805;49.554;7.632;2022-09-29T01:09:24;8.30;99.90
15413;DHT22;7805;49.554;7.632;2022-09-29T01:11:51;8.30;99.90
15413;DHT22;7805;49.554;7.632;2022-09-29T01:14:19;8.30;99.90
15413;DHT22;7805;49.554;7.632;2022-09-29T01:16:46;8.40;99.90
15413;DHT22;7805;49.554;7.632;2022-09-29T01:22:29;8.40;99.90
15413;DHT22;7805;49.554;7.632;2022-09-29T01:33:53;8.00;99.90
15413;DHT22;7805;49.554;7.632;2022-09-29T01:36:23;7.90;99.90
15413;DHT22;7805;49.554;7.632;2022-09-29T01:39:22;7.80;99.90
15413;DHT22;7805;49.554;7.632;2022-09-29T01:41:54;7.80;99.90
15413;DHT22;7805;49.554;7.632;2022-09-29T01:44:28;7.80;99.90
15413;DHT22;7805;49.554;7.632;2022-09-29T01:47:00;7.80;99.90
15413;DHT22;7805;49.554;7.632;2022-09-29T01:49:30;7.70;99.90
15413;DHT22;7805;49.554;7.632;2022-09-29T01:52:07;7.60;99.90
15413;DHT22;7805;49.554;7.632;2022-09-29T01:54:44;7.60;99.90
15413;DHT22;7805;49.554;7.632;2022-09-29T02:00:05;7.60;99.90
15413;DHT22;7805;49.554;7.632;2022-09-29T02:03:00;7.60;99.90
15413;DHT22;7805;49.554;7.632;2022-09-29T02:05:36;7.60;99.90
15413;DHT22;7805;49.554;7.632;2022-09-29T02:08:27;7.70;99.90
15413;DHT22;7805;49.554;7.632;2022-09-29T02:11:08;7.60;99.90
15413;DHT22;7805;49.554;7.632;2022-09-29T02:13:39;7.50;99.90
15413;DHT22;7805;49.554;7.632;2022-09-29T02:16:08;7.50;99.90
15413;DHT22;7805;49.554;7.632;2022-09-29T02:18:41;7.30;99.90
15413;DHT22;7805;49.554;7.632;2022-09-29T02:21:08;7.30;99.90
15413;DHT22;7805;49.554;7.632;2022-09-29T02:23:34;7.40;99.90
15413;DHT22;7805;49.554;7.632;2022-09-29T02:26:01;7.50;99.90
15413;DHT22;7805;49.554;7.632;2022-09-29T02:28:28;7.40;99.90
15413;DHT22;7805;49.554;7.632;2022-09-29T02:30:53;7.30;99.90
15413;DHT22;7805;49.554;7.632;2022-09-29T02:33:24;7.30;99.90
15413;DHT22;7805;49.554;7.632;2022-09-29T02:38:34;7.30;99.90
15413;DHT22;7805;49.554;7.632;2022-09-29T02:44:16;7.30;99.90
15413;DHT22;7805;49.554;7.632;2022-09-29T02:46:49;7.20;99.90
15413;DHT22;7805;49.554;7.632;2022-09-29T02:49:32;7.30;99.90
15413;DHT22;7805;49.554;7.632;2022-09-29T02:52:11;7.30;99.90
15413;DHT22;7805;49.554;7.632;2022-09-29T03:00:12;7.20;99.90
15413;DHT22;7805;49.554;7.632;2022-09-29T03:02:39;7.20;99.90
15413;DHT22;7805;49.554;7.632;2022-09-29T03:05:08;7.30;99.90
15413;DHT22;7805;49.554;7.632;2022-09-29T03:07:36;7.30;99.90
15413;DHT22;7805;49.554;7.632;2022-09-29T03:10:03;7.40;99.90
15413;DHT22;7805;49.554;7.632;2022-09-29T03:12:29;7.50;99.90
15413;DHT22;7805;49.554;7.632;2022-09-29T03:14:55;7.50;99.90
15413;DHT22;7805;49.554;7.632;2022-09-29T03:17:21;7.60;99.90
15413;DHT22;7805;49.554;7.632;2022-09-29T03:19:46;7.60;99.90
15413;DHT22;7805;49.554;7.632;2022-09-29T03:22:12;7.50;99.90
15413;DHT22;7805;49.554;7.632;2022-09-29T03:24:37;7.60;99.90
15413;DHT22;7805;49.554;7.632;2022-09-29T03:27:03;7.50;99.90
15413;DHT22;7805;49.554;7.632;2022-09-29T03:29:29;7.40;99.90
15413;DHT22;7805;49.554;7.632;2022-09-29T03:31:54;7.50;99.90
15413;DHT22;7805;49.554;7.632;2022-09-29T03:34:20;7.40;99.90
15413;DHT22;7805;49.554;7.632;2022-09-29T03:36:45;7.30;99.90
15413;DHT22;7805;49.554;7.632;2022-09-29T03:39:11;7.30;99.90
15413;DHT22;7805;49.554;7.632;2022-09-29T03:41:37;7.30;99.90
15413;DHT22;7805;49.554;7.632;2022-09-29T03:44:02;7.20;99.90
15413;DHT22;7805;49.554;7.632;2022-09-29T03:46:28;7.30;99.90
15413;DHT22;7805;49.554;7.632;2022-09-29T03:48:54;7.30;99.90
15413;DHT22;7805;49.554;7.632;2022-09-29T03:51:20;7.30;99.90
15413;DHT22;7805;49.554;7.632;2022-09-29T03:53:45;7.40;99.90
15413;DHT22;7805;49.554;7.632;2022-09-29T03:56:11;7.50;99.90
15413;DHT22;7805;49.554;7.632;2022-09-29T03:58:36;7.60;99.90
15413;DHT22;7805;49.554;7.632;2022-09-29T04:01:02;7.70;99.90
15413;DHT22;7805;49.554;7.632;2022-09-29T04:03:28;7.70;99.90
15413;DHT22;7805;49.554;7.632;2022-09-29T04:05:54;7.70;99.90
15413;DHT22;7805;49.554;7.632;2022-09-29T04:08:19;6.60;99.90
15413;DHT22;7805;49.554;7.632;2022-09-29T04:10:46;7.60;99.90
15413;DHT22;7805;49.554;7.632;2022-09-29T04:13:12;7.60;99.90
15413;DHT22;7805;49.554;7.632;2022-09-29T04:15:37;7.60;99.90
15413;DHT22;7805;49.554;7.632;2022-09-29T04:18:03;7.60;99.90
15413;DHT22;7805;49.554;7.632;2022-09-29T04:20:29;7.60;99.90
15413;DHT22;7805;49.554;7.632;2022-09-29T04:22:54;7.70;99.90
15413;DHT22;7805;49.554;7.632;2022-09-29T04:25:20;7.70;99.90
15413;DHT22;7805;49.554;7.632;2022-09-29T04:27:46;7.70;99.90
15413;DHT22;7805;49.554;7.632;2022-09-29T04:30:11;7.60;99.90
15413;DHT22;7805;49.554;7.632;2022-09-29T04:32:37;7.60;99.90
15413;DHT22;7805;49.554;7.632;2022-09-29T04:35:03;7.60;99.90
15413;DHT22;7805;49.554;7.632;2022-09-29T04:37:28;7.60;99.90
15413;DHT22;7805;49.554;7.632;2022-09-29T04:39:54;7.50;99.90
15413;DHT22;7805;49.554;7.632;2022-09-29T04:42:20;7.50;99.90
15413;DHT22;7805;49.554;7.632;2022-09-29T04:44:45;7.40;99.90
15413;DHT22;7805;49.554;7.632;2022-09-29T04:47:14;7.30;99.90
15413;DHT22;7805;49.554;7.632;2022-09-29T04:49:40;7.30;99.90
15413;DHT22;7805;49.554;7.632;2022-09-29T04:52:05;7.30;99.90
15413;DHT22;7805;49.554;7.632;2022-09-29T04:54:32;7.40;99.90
15413;DHT22;7805;49.554;7.632;2022-09-29T04:56:59;7.30;99.90
15413;DHT22;7805;49.554;7.632;2022-09-29T04:59:26;7.30;99.90
15413;DHT22;7805;49.554;7.632;2022-09-29T05:01:51;7.30;99.90
15413;DHT22;7805;49.554;7.632;2022-09-29T05:04:17;7.20;99.90
15413;DHT22;7805;49.554;7.632;2022-09-29T05:06:42;7.30;99.90
15413;DHT22;7805;49.554;7.632;2022-09-29T05:09:08;7.30;99.90
15413;DHT22;7805;49.554;7.632;2022-09-29T05:11:34;7.20;99.90
15413;DHT22;7805;49.554;7.632;2022-09-29T05:13:59;7.10;99.90
15413;DHT22;7805;49.554;7.632;2022-09-29T05:16:25;7.10;99.90
15413;DHT22;7805;49.554;7.632;2022-09-29T05:18:51;7.20;99.90
15413;DHT22;7805;49.554;7.632;2022-09-29T05:21:17;7.30;99.90
15413;DHT22;7805;49.554;7.632;2022-09-29T05:23:43;7.30;99.90
15413;DHT22;7805;49.554;7.632;2022-09-29T05:26:10;7.40;99.90
15413;DHT22;7805;49.554;7.632;2022-09-29T05:28:36;7.40;99.90
15413;DHT22;7805;49.554;7.632;2022-09-29T05:31:06;7.40;99.90
15413;DHT22;7805;49.554;7.632;2022-09-29T05:33:32;7.40;99.90
15413;DHT22;7805;49.554;7.632;2022-09-29T05:35:58;7.40;99.90
15413;DHT22;7805;49.554;7.632;2022-09-29T05:38:24;7.50;99.90
15413;DHT22;7805;49.554;7.632;2022-09-29T05:40:51;7.60;99.90
15413;DHT22;7805;49.554;7.632;2022-09-29T05:43:17;7.60;99.90
15413;DHT22;7805;49.554;7.632;2022-09-29T05:45:43;7.60;99.90
15413;DHT22;7805;49.554;7.632;2022-09-29T05:48:08;7.60;99.90
15413;DHT22;7805;49.554;7.632;2022-09-29T05:50:35;7.70;99.90
15413;DHT22;7805;49.554;7.632;2022-09-29T05:53:08;7.70;99.90
15413;DHT22;7805;49.554;7.632;2022-09-29T05:55:37;7.60;99.90
15413;DHT22;7805;49.554;7.632;2022-09-29T05:58:04;7.60;99.90
15413;DHT22;7805;49.554;7.632;2022-09-29T06:00:30;7.60;99.90
15413;DHT22;7805;49.554;7.632;2022-09-29T06:03:00;7.70;99.90
15413;DHT22;7805;49.554;7.632;2022-09-29T06:05:26;7.80;99.90
15413;DHT22;7805;49.554;7.632;2022-09-29T06:07:52;7.80;99.90
15413;DHT22;7805;49.554;7.632;2022-09-29T06:10:18;7.90;99.90
15413;DHT22;7805;49.554;7.632;2022-09-29T06:12:44;7.90;99.90
15413;DHT22;7805;49.554;7.632;2022-09-29T06:15:10;8.00;99.90
15413;DHT22;7805;49.554;7.632;2022-09-29T06:17:36;8.00;99.90
15413;DHT22;7805;49.554;7.632;2022-09-29T06:20:03;8.10;99.90
15413;DHT22;7805;49.554;7.632;2022-09-29T06:22:29;8.60;99.90
15413;DHT22;7805;49.554;7.632;2022-09-29T06:24:54;8.30;99.90
15413;DHT22;7805;49.554;7.632;2022-09-29T06:27:20;8.40;99.90
15413;DHT22;7805;49.554;7.632;2022-09-29T06:29:45;8.40;99.90
15413;DHT22;7805;49.554;7.632;2022-09-29T06:32:11;8.40;99.90
15413;DHT22;7805;49.554;7.632;2022-09-29T06:34:36;8.40;99.90
15413;DHT22;7805;49.554;7.632;2022-09-29T06:37:25;8.50;99.90
15413;DHT22;7805;49.554;7.632;2022-09-29T06:40:04;8.50;99.90
15413;DHT22;7805;49.554;7.632;2022-09-29T06:42:30;8.60;99.90
15413;DHT22;7805;49.554;7.632;2022-09-29T06:44:56;8.70;99.90
15413;DHT22;7805;49.554;7.632;2022-09-29T06:47:22;8.70;99.90
15413;DHT22;7805;49.554;7.632;2022-09-29T06:49:48;9.40;99.90
15413;DHT22;7805;49.554;7.632;2022-09-29T06:52:15;8.90;99.90
15413;DHT22;7805;49.554;7.632;2022-09-29T06:54:40;8.90;99.90
15413;DHT22;7805;49.554;7.632;2022-09-29T06:57:06;8.80;99.90
15413;DHT22;7805;49.554;7.632;2022-09-29T06:59:31;8.90;99.90
15413;DHT22;7805;49.554;7.632;2022-09-29T07:01:57;9.00;99.90
15413;DHT22;7805;49.554;7.632;2022-09-29T07:04:23;9.00;99.90
15413;DHT22;7805;49.554;7.632;2022-09-29T07:06:49;9.10;99.90
15413;DHT22;7805;49.554;7.632;2022-09-29T07:09:15;9.10;99.90
15413;DHT22;7805;49.554;7.632;2022-09-29T07:11:42;9.10;99.90
15413;DHT22;7805;49.554;7.632;2022-09-29T07:14:15;9.10;99.90
15413;DHT22;7805;49.554;7.632;2022-09-29T07:16:42;9.20;99.90
15413;DHT22;7805;49.554;7.632;2022-09-29T07:19:08;9.30;99.90
15413;DHT22;7805;49.554;7.632;2022-09-29T07:21:34;9.40;99.90
15413;DHT22;7805;49.554;7.632;2022-09-29T07:23:59;9.50;99.90
15413;DHT22;7805;49.554;7.632;2022-09-29T07:26:25;9.50;99.90
15413;DHT22;7805;49.554;7.632;2022-09-29T07:28:52;9.60;99.90
15413;DHT22;7805;49.554;7.632;2022-09-29T07:31:19;9.70;99.90
15413;DHT22;7805;49.554;7.632;2022-09-29T07:33:47;9.70;99.90
15413;DHT22;7805;49.554;7.632;2022-09-29T07:36:14;9.70;99.90
15413;DHT22;7805;49.554;7.632;2022-09-29T07:38:39;9.80;99.90
15413;DHT22;7805;49.554;7.632;2022-09-29T07:41:07;9.70;99.90
15413;DHT22;7805;49.554;7.632;2022-09-29T07:43:33;9.50;99.90
15413;DHT22;7805;49.554;7.632;2022-09-29T07:45:59;11.80;99.90
15413;DHT22;7805;49.554;7.632;2022-09-29T07:48:25;10.00;99.90
15413;DHT22;7805;49.554;7.632;2022-09-29T07:50:52;10.00;99.90
15413;DHT22;7805;49.554;7.632;2022-09-29T07:53:17;10.10;99.90
15413;DHT22;7805;49.554;7.632;2022-09-29T07:55:43;10.20;99.90
15413;DHT22;7805;49.554;7.632;2022-09-29T07:58:09;10.30;99.90
15413;DHT22;7805;49.554;7.632;2022-09-29T08:00:34;10.40;99.90
15413;DHT22;7805;49.554;7.632;2022-09-29T08:03:01;10.40;99.90
15413;DHT22;7805;49.554;7.632;2022-09-29T08:05:29;10.40;99.90
15413;DHT22;7805;49.554;7.632;2022-09-29T08:08:01;10.40;99.90
15413;DHT22;7805;49.554;7.632;2022-09-29T08:10:28;10.50;99.90
15413;DHT22;7805;49.554;7.632;2022-09-29T08:12:53;10.50;99.90
15413;DHT22;7805;49.554;7.632;2022-09-29T08:15:20;10.50;99.90
15413;DHT22;7805;49.554;7.632;2022-09-29T08:17:46;10.60;99.90
15413;DHT22;7805;49.554;7.632;2022-09-29T08:20:12;9.30;99.90
15413;DHT22;7805;49.554;7.632;2022-09-29T08:22:38;10.80;99.90
15413;DHT22;7805;49.554;7.632;2022-09-29T08:25:04;10.80;99.90
15413;DHT22;7805;49.554;7.632;2022-09-29T08:27:29;10.90;99.90
15413;DHT22;7805;49.554;7.632;2022-09-29T08:29:55;11.10;99.90
15413;DHT22;7805;49.554;7.632;2022-09-29T08:32:22;11.20;99.90
15413;DHT22;7805;49.554;7.632;2022-09-29T08:34:48;11.10;99.90
15413;DHT22;7805;49.554;7.632;2022-09-29T08:37:14;10.90;99.90
15413;DHT22;7805;49.554;7.632;2022-09-29T08:39:39;11.10;99.90
15413;DHT22;7805;49.554;7.632;2022-09-29T08:42:28;11.30;99.90
15413;DHT22;7805;49.554;7.632;2022-09-29T08:45:02;11.40;99.90
15413;DHT22;7805;49.554;7.632;2022-09-29T08:47:41;11.40;99.90
15413;DHT22;7805;49.554;7.632;2022-09-29T08:50:26;11.90;99.90
15413;DHT22;7805;49.554;7.632;2022-09-29T08:52:57;12.20;99.90
15413;DHT22;7805;49.554;7.632;2022-09-29T08:55:40;12.30;99.90
15413;DHT22;7805;49.554;7.632;2022-09-29T08:58:11;12.50;99.90
15413;DHT22;7805;49.554;7.632;2022-09-29T09:26:05;14.10;99.90
15413;DHT22;7805;49.554;7.632;2022-09-29T09:28:49;14.80;99.90
15413;DHT22;7805;49.554;7.632;2022-09-29T09:33:56;15.10;99.90
15413;DHT22;7805;49.554;7.632;2022-09-29T09:36:32;15.30;99.90
15413;DHT22;7805;49.554;7.632;2022-09-29T09:41:41;16.20;99.90
15413;DHT22;7805;49.554;7.632;2022-09-29T09:44:18;16.80;99.90
15413;DHT22;7805;49.554;7.632;2022-09-29T09:46:48;16.90;99.90
15413;DHT22;7805;49.554;7.632;2022-09-29T09:49:27;17.00;99.90
15413;DHT22;7805;49.554;7.632;2022-09-29T09:54:34;17.70;99.90
15413;DHT22;7805;49.554;7.632;2022-09-29T09:57:41;17.80;99.90
15413;DHT22;7805;49.554;7.632;2022-09-29T10:02:49;17.70;99.90
15413;DHT22;7805;49.554;7.632;2022-09-29T10:05:23;17.80;99.90
15413;DHT22;7805;49.554;7.632;2022-09-29T10:07:50;17.40;99.90
15413;DHT22;7805;49.554;7.632;2022-09-29T10:10:20;17.10;99.90
15413;DHT22;7805;49.554;7.632;2022-09-29T10:13:24;17.00;99.90
15413;DHT22;7805;49.554;7.632;2022-09-29T10:18:43;17.10;99.90
15413;DHT22;7805;49.554;7.632;2022-09-29T10:23:55;16.90;99.90
15413;DHT22;7805;49.554;7.632;2022-09-29T10:26:42;17.00;99.90
15413;DHT22;7805;49.554;7.632;2022-09-29T10:32:43;16.70;99.90
15413;DHT22;7805;49.554;7.632;2022-09-29T10:34:46;16.90;99.90
15413;DHT22;7805;49.554;7.632;2022-09-29T10:42:42;17.30;99.90
15413;DHT22;7805;49.554;7.632;2022-09-29T10:45:20;17.60;99.90
15413;DHT22;7805;49.554;7.632;2022-09-29T10:48:12;17.20;99.90
15413;DHT22;7805;49.554;7.632;2022-09-29T10:50:49;17.20;99.90
15413;DHT22;7805;49.554;7.632;2022-09-29T10:53:39;17.50;99.90
15413;DHT22;7805;49.554;7.632;2022-09-29T10:56:16;17.40;99.90
15413;DHT22;7805;49.554;7.632;2022-09-29T10:58:44;17.00;99.90
15413;DHT22;7805;49.554;7.632;2022-09-29T11:01:17;16.50;99.90
15413;DHT22;7805;49.554;7.632;2022-09-29T11:03:54;16.60;99.90
15413;DHT22;7805;49.554;7.632;2022-09-29T11:06:30;17.00;99.90
15413;DHT22;7805;49.554;7.632;2022-09-29T11:09:05;16.90;99.90
15413;DHT22;7805;49.554;7.632;2022-09-29T11:11:58;16.90;99.90
15413;DHT22;7805;49.554;7.632;2022-09-29T11:16:57;17.20;99.90
15413;DHT22;7805;49.554;7.632;2022-09-29T11:19:24;17.20;99.90
15413;DHT22;7805;49.554;7.632;2022-09-29T11:27:41;17.20;99.90
15413;DHT22;7805;49.554;7.632;2022-09-29T11:35:53;17.10;99.90
15413;DHT22;7805;49.554;7.632;2022-09-29T11:39:02;17.10;99.50
15413;DHT22;7805;49.554;7.632;2022-09-29T11:44:14;17.40;99.90
15413;DHT22;7805;49.554;7.632;2022-09-29T12:00:20;18.10;98.50
15413;DHT22;7805;49.554;7.632;2022-09-29T12:02:58;18.30;98.80
15413;DHT22;7805;49.554;7.632;2022-09-29T12:06:09;18.10;97.80
15413;DHT22;7805;49.554;7.632;2022-09-29T12:11:35;18.70;97.50
15413;DHT22;7805;49.554;7.632;2022-09-29T12:14:23;18.90;97.70
15413;DHT22;7805;49.554;7.632;2022-09-29T12:16:57;20.10;95.70
15413;DHT22;7805;49.554;7.632;2022-09-29T12:19:27;19.20;96.40
15413;DHT22;7805;49.554;7.632;2022-09-29T12:21:58;20.30;96.30
15413;DHT22;7805;49.554;7.632;2022-09-29T12:26:50;19.90;96.20
15413;DHT22;7805;49.554;7.632;2022-09-29T12:29:47;20.20;93.60
15413;DHT22;7805;49.554;7.632;2022-09-29T12:32:25;19.90;92.30
15413;DHT22;7805;49.554;7.632;2022-09-29T12:38:26;20.30;92.90
15413;DHT22;7805;49.554;7.632;2022-09-29T12:41:10;21.40;93.60
15413;DHT22;7805;49.554;7.632;2022-09-29T12:43:44;21.10;92.70
15413;DHT22;7805;49.554;7.632;2022-09-29T12:46:30;21.60;92.70
15413;DHT22;7805;49.554;7.632;2022-09-29T12:49:24;21.10;88.30
15413;DHT22;7805;49.554;7.632;2022-09-29T12:51:52;20.60;90.40
15413;DHT22;7805;49.554;7.632;2022-09-29T12:54:24;20.70;92.60
15413;DHT22;7805;49.554;7.632;2022-09-29T12:59:39;21.10;91.80
15413;DHT22;7805;49.554;7.632;2022-09-29T13:05:17;19.40;93.10
15413;DHT22;7805;49.554;7.632;2022-09-29T13:08:01;19.50;92.60
15413;DHT22;7805;49.554;7.632;2022-09-29T13:26:49;21.30;93.00
15413;DHT22;7805;49.554;7.632;2022-09-29T13:29:23;19.50;93.00
15413;DHT22;7805;49.554;7.632;2022-09-29T13:31:53;19.60;93.10
15413;DHT22;7805;49.554;7.632;2022-09-29T13:34:33;19.90;93.00
15413;DHT22;7805;49.554;7.632;2022-09-29T13:39:31;19.80;92.60
15413;DHT22;7805;49.554;7.632;2022-09-29T13:42:36;20.30;92.80
15413;DHT22;7805;49.554;7.632;2022-09-29T14:01:10;19.40;91.20
15413;DHT22;7805;49.554;7.632;2022-09-29T14:03:39;20.30;91.80
15413;DHT22;7805;49.554;7.632;2022-09-29T14:06:19;17.40;92.00
15413;DHT22;7805;49.554;7.632;2022-09-29T14:09:00;18.10;92.80
15413;DHT22;7805;49.554;7.632;2022-09-29T14:11:37;18.00;94.00
15413;DHT22;7805;49.554;7.632;2022-09-29T14:17:24;17.50;94.10
15413;DHT22;7805;49.554;7.632;2022-09-29T14:20:02;16.80;93.50
15413;DHT22;7805;49.554;7.632;2022-09-29T14:35:39;15.90;97.60
15413;DHT22;7805;49.554;7.632;2022-09-29T14:41:02;15.60;97.80
15413;DHT22;7805;49.554;7.632;2022-09-29T14:43:39;15.40;98.20
15413;DHT22;7805;49.554;7.632;2022-09-29T14:52:39;12.70;99.90
15413;DHT22;7805;49.554;7.632;2022-09-29T14:55:19;14.30;99.90
15413;DHT22;7805;49.554;7.632;2022-09-29T15:03:37;13.20;99.90
15413;DHT22;7805;49.554;7.632;2022-09-29T15:06:16;14.20;99.90
15413;DHT22;7805;49.554;7.632;2022-09-29T15:09:10;14.30;99.90
15413;DHT22;7805;49.554;7.632;2022-09-29T15:11:47;14.10;99.90
15413;DHT22;7805;49.554;7.632;2022-09-29T15:25:28;13.70;99.90
15413;DHT22;7805;49.554;7.632;2022-09-29T15:28:01;13.70;99.90
15413;DHT22;7805;49.554;7.632;2022-09-29T15:30:27;13.90;99.90
15413;DHT22;7805;49.554;7.632;2022-09-29T15:33:14;13.90;99.90
15413;DHT22;7805;49.554;7.632;2022-09-29T15:35:43;14.00;99.90
15413;DHT22;7805;49.554;7.632;2022-09-29T15:40:35;14.10;99.90
15413;DHT22;7805;49.554;7.632;2022-09-29T15:43:02;14.10;99.90
15413;DHT22;7805;49.554;7.632;2022-09-29T15:45:27;14.10;99.90
15413;DHT22;7805;49.554;7.632;2022-09-29T15:50:25;14.30;99.90
15413;DHT22;7805;49.554;7.632;2022-09-29T15:52:51;14.30;99.90
15413;DHT22;7805;49.554;7.632;2022-09-29T15:55:21;14.60;99.90
15413;DHT22;7805;49.554;7.632;2022-09-29T15:57:48;14.60;99.90
15413;DHT22;7805;49.554;7.632;2022-09-29T16:03:14;14.70;99.90
15413;DHT22;7805;49.554;7.632;2022-09-29T16:05:51;14.90;99.90
15413;DHT22;7805;49.554;7.632;2022-09-29T16:08:23;14.90;99.90
15413;DHT22;7805;49.554;7.632;2022-09-29T16:10:54;15.00;99.90
15413;DHT22;7805;49.554;7.632;2022-09-29T16:13:28;15.10;99.90
15413;DHT22;7805;49.554;7.632;2022-09-29T16:16:08;15.10;99.90
15413;DHT22;7805;49.554;7.632;2022-09-29T16:19:06;15.10;99.90
15413;DHT22;7805;49.554;7.632;2022-09-29T16:21:35;15.00;99.90
15413;DHT22;7805;49.554;7.632;2022-09-29T16:24:05;15.10;99.90
15413;DHT22;7805;49.554;7.632;2022-09-29T16:26:37;15.00;99.90
15413;DHT22;7805;49.554;7.632;2022-09-29T16:31:37;14.90;99.90
15413;DHT22;7805;49.554;7.632;2022-09-29T16:37:05;14.60;99.90
15413;DHT22;7805;49.554;7.632;2022-09-29T16:39:41;14.60;99.90
15413;DHT22;7805;49.554;7.632;2022-09-29T16:42:16;14.40;99.90
15413;DHT22;7805;49.554;7.632;2022-09-29T16:44:43;14.30;99.90
15413;DHT22;7805;49.554;7.632;2022-09-29T16:49:36;13.90;99.90
15413;DHT22;7805;49.554;7.632;2022-09-29T16:52:21;13.80;99.90
15413;DHT22;7805;49.554;7.632;2022-09-29T16:54:51;13.60;99.90
15413;DHT22;7805;49.554;7.632;2022-09-29T16:57:29;14.60;99.90
15413;DHT22;7805;49.554;7.632;2022-09-29T16:59:59;13.40;99.90
15413;DHT22;7805;49.554;7.632;2022-09-29T17:02:26;13.40;99.90
15413;DHT22;7805;49.554;7.632;2022-09-29T17:04:53;13.40;99.90
15413;DHT22;7805;49.554;7.632;2022-09-29T17:07:21;13.30;99.90
15413;DHT22;7805;49.554;7.632;2022-09-29T17:09:51;13.20;99.90
15413;DHT22;7805;49.554;7.632;2022-09-29T17:12:17;13.10;99.90
15413;DHT22;7805;49.554;7.632;2022-09-29T17:14:43;13.00;99.90
15413;DHT22;7805;49.554;7.632;2022-09-29T17:17:25;13.00;99.90
15413;DHT22;7805;49.554;7.632;2022-09-29T17:19:52;13.00;99.90
15413;DHT22;7805;49.554;7.632;2022-09-29T17:24:52;12.90;99.90
15413;DHT22;7805;49.554;7.632;2022-09-29T17:27:18;12.90;99.90
15413;DHT22;7805;49.554;7.632;2022-09-29T17:30:12;12.80;99.90
15413;DHT22;7805;49.554;7.632;2022-09-29T17:32:42;12.70;99.90
15413;DHT22;7805;49.554;7.632;2022-09-29T17:35:15;12.70;99.90
15413;DHT22;7805;49.554;7.632;2022-09-29T17:37:41;12.60;99.90
15413;DHT22;7805;49.554;7.632;2022-09-29T17:40:24;12.50;99.90
15413;DHT22;7805;49.554;7.632;2022-09-29T17:42:51;12.20;99.90
15413;DHT22;7805;49.554;7.632;2022-09-29T17:45:18;12.10;99.90
15413;DHT22;7805;49.554;7.632;2022-09-29T17:47:45;11.90;99.90
15413;DHT22;7805;49.554;7.632;2022-09-29T17:52:43;11.80;99.90
15413;DHT22;7805;49.554;7.632;2022-09-29T17:55:08;11.80;99.90
15413;DHT22;7805;49.554;7.632;2022-09-29T17:57:37;11.70;99.90
15413;DHT22;7805;49.554;7.632;2022-09-29T18:00:17;11.80;99.90
15413;DHT22;7805;49.554;7.632;2022-09-29T18:02:45;11.70;99.90
15413;DHT22;7805;49.554;7.632;2022-09-29T18:05:11;11.50;99.90
15413;DHT22;7805;49.554;7.632;2022-09-29T18:07:37;11.50;99.90
15413;DHT22;7805;49.554;7.632;2022-09-29T18:10:19;11.30;99.90
15413;DHT22;7805;49.554;7.632;2022-09-29T18:12:45;11.20;99.90
15413;DHT22;7805;49.554;7.632;2022-09-29T18:15:11;11.10;99.90
15413;DHT22;7805;49.554;7.632;2022-09-29T18:17:36;11.10;99.90
15413;DHT22;7805;49.554;7.632;2022-09-29T18:22:39;11.00;99.90
15413;DHT22;7805;49.554;7.632;2022-09-29T18:25:05;10.90;99.90
15413;DHT22;7805;49.554;7.632;2022-09-29T18:27:32;10.80;99.90
15413;DHT22;7805;49.554;7.632;2022-09-29T18:29:57;10.80;99.90
15413;DHT22;7805;49.554;7.632;2022-09-29T18:32:23;10.90;99.90
15413;DHT22;7805;49.554;7.632;2022-09-29T18:34:49;10.90;99.90
15413;DHT22;7805;49.554;7.632;2022-09-29T18:37:14;10.90;99.90
15413;DHT22;7805;49.554;7.632;2022-09-29T18:39:41;10.80;99.90
15413;DHT22;7805;49.554;7.632;2022-09-29T18:42:08;11.70;99.90
15413;DHT22;7805;49.554;7.632;2022-09-29T18:44:34;10.70;99.90
15413;DHT22;7805;49.554;7.632;2022-09-29T18:47:01;10.50;99.90
15413;DHT22;7805;49.554;7.632;2022-09-29T18:49:26;10.50;99.90
15413;DHT22;7805;49.554;7.632;2022-09-29T18:51:52;10.50;99.90
15413;DHT22;7805;49.554;7.632;2022-09-29T18:54:17;10.40;99.90
15413;DHT22;7805;49.554;7.632;2022-09-29T18:56:43;10.40;99.90
15413;DHT22;7805;49.554;7.632;2022-09-29T18:59:12;10.40;99.90
15413;DHT22;7805;49.554;7.632;2022-09-29T19:01:38;10.40;99.90
15413;DHT22;7805;49.554;7.632;2022-09-29T19:04:04;10.40;99.90
15413;DHT22;7805;49.554;7.632;2022-09-29T19:06:30;10.30;99.90
15413;DHT22;7805;49.554;7.632;2022-09-29T19:08:56;10.30;99.90
15413;DHT22;7805;49.554;7.632;2022-09-29T19:11:24;10.20;99.90
15413;DHT22;7805;49.554;7.632;2022-09-29T19:13:50;10.10;99.90
15413;DHT22;7805;49.554;7.632;2022-09-29T19:16:18;10.00;99.90
15413;DHT22;7805;49.554;7.632;2022-09-29T19:18:44;9.90;99.90
15413;DHT22;7805;49.554;7.632;2022-09-29T19:21:11;9.80;99.90
15413;DHT22;7805;49.554;7.632;2022-09-29T19:23:39;9.80;99.90
15413;DHT22;7805;49.554;7.632;2022-09-29T19:26:15;9.80;99.90
15413;DHT22;7805;49.554;7.632;2022-09-29T19:28:42;9.90;99.90
15413;DHT22;7805;49.554;7.632;2022-09-29T19:31:15;9.90;99.90
15413;DHT22;7805;49.554;7.632;2022-09-29T19:33:42;9.80;99.90
15413;DHT22;7805;49.554;7.632;2022-09-29T19:36:13;9.80;99.90
15413;DHT22;7805;49.554;7.632;2022-09-29T19:38:39;9.80;99.90
15413;DHT22;7805;49.554;7.632;2022-09-29T19:41:20;9.80;99.90
15413;DHT22;7805;49.554;7.632;2022-09-29T19:43:47;9.80;99.90
15413;DHT22;7805;49.554;7.632;2022-09-29T19:46:13;9.80;99.90
15413;DHT22;7805;49.554;7.632;2022-09-29T19:48:39;9.70;99.90
15413;DHT22;7805;49.554;7.632;2022-09-29T19:51:07;9.70;99.90
15413;DHT22;7805;49.554;7.632;2022-09-29T19:53:52;9.70;99.90
15413;DHT22;7805;49.554;7.632;2022-09-29T19:56:36;9.60;99.90
15413;DHT22;7805;49.554;7.632;2022-09-29T19:59:02;9.40;99.90
15413;DHT22;7805;49.554;7.632;2022-09-29T20:01:28;9.40;99.90